createdAt,value
2018-07-02T00:00:07.034Z,19.00
2018-07-02T00:02:35.817Z,19.10
2018-07-02T00:05:05.025Z,19.00
2018-07-02T00:07:33.701Z,18.90
2018-07-02T00:10:02.362Z,18.90
2018-07-02T00:12:31.060Z,18.80
2018-07-02T00:14:59.820Z,18.70
2018-07-02T00:17:28.416Z,18.60
2018-07-02T00:19:57.092Z,18.60
2018-07-02T00:22:25.685Z,18.50
2018-07-02T00:24:54.301Z,18.60
2018-07-02T00:27:22.740Z,18.60
2018-07-02T00:29:51.148Z,18.70
2018-07-02T00:32:19.809Z,18.60
2018-07-02T00:34:48.274Z,18.40
2018-07-02T00:37:16.693Z,18.30
2018-07-02T00:39:45.351Z,18.40
2018-07-02T00:42:14.158Z,18.30
2018-07-02T00:44:42.794Z,18.30
2018-07-02T00:47:11.262Z,18.40
2018-07-02T00:49:39.741Z,18.40
2018-07-02T00:52:08.235Z,18.40
2018-07-02T00:54:36.625Z,18.20
2018-07-02T00:57:05.135Z,18.20
2018-07-02T00:59:33.613Z,18.10
2018-07-02T01:02:02.138Z,18.00
2018-07-02T01:04:30.670Z,17.90
2018-07-02T01:06:59.307Z,17.80
2018-07-02T01:09:27.913Z,17.90
2018-07-02T01:11:56.302Z,17.90
2018-07-02T01:14:24.761Z,17.90
2018-07-02T01:16:53.277Z,17.90
2018-07-02T01:21:49.835Z,17.90
2018-07-02T01:24:18.354Z,17.90
2018-07-02T01:26:46.790Z,17.80
2018-07-02T01:29:15.217Z,17.80
2018-07-02T01:31:43.692Z,17.70
2018-07-02T01:34:12.112Z,17.70
2018-07-02T01:36:40.593Z,17.80
2018-07-02T01:39:10.088Z,17.70
2018-07-02T01:41:38.545Z,17.70
2018-07-02T01:44:06.972Z,17.60
2018-07-02T01:46:35.352Z,17.50
2018-07-02T01:49:03.777Z,17.50
2018-07-02T01:51:32.188Z,17.50
2018-07-02T01:54:00.669Z,17.40
2018-07-02T01:56:29.195Z,17.40
2018-07-02T01:58:57.679Z,17.30
2018-07-02T02:01:26.107Z,17.30
2018-07-02T02:03:54.640Z,17.30
2018-07-02T02:06:23.213Z,17.40
2018-07-02T02:08:51.753Z,17.30
2018-07-02T02:11:20.311Z,17.30
2018-07-02T02:13:48.661Z,17.20
2018-07-02T02:16:17.168Z,17.20
2018-07-02T02:18:45.648Z,17.10
2018-07-02T02:21:14.117Z,17.10
2018-07-02T02:23:42.630Z,17.10
2018-07-02T02:26:11.087Z,17.00
2018-07-02T02:28:39.551Z,17.00
2018-07-02T02:33:36.113Z,16.90
2018-07-02T02:36:04.624Z,16.80
2018-07-02T02:38:33.209Z,16.70
2018-07-02T02:41:01.593Z,16.70
2018-07-02T02:43:30.126Z,16.70
2018-07-02T02:45:58.627Z,16.70
2018-07-02T02:48:27.117Z,16.70
2018-07-02T02:50:55.547Z,16.60
2018-07-02T02:53:24.041Z,16.50
2018-07-02T02:55:52.829Z,16.50
2018-07-02T02:58:21.229Z,16.60
2018-07-02T03:00:49.581Z,16.60
2018-07-02T03:03:18.005Z,16.50
2018-07-02T03:05:46.382Z,16.40
2018-07-02T03:08:14.768Z,16.50
2018-07-02T03:10:43.183Z,16.40
2018-07-02T03:13:11.796Z,16.30
2018-07-02T03:15:40.238Z,16.30
2018-07-02T03:18:08.601Z,16.20
2018-07-02T03:20:37.040Z,16.20
2018-07-02T03:23:05.554Z,16.20
2018-07-02T03:25:33.974Z,16.10
2018-07-02T03:28:02.445Z,16.10
2018-07-02T03:30:30.970Z,16.00
2018-07-02T03:32:59.412Z,15.90
2018-07-02T03:35:27.876Z,16.00
2018-07-02T03:37:56.325Z,15.90
2018-07-02T03:40:24.844Z,15.90
2018-07-02T03:42:53.329Z,15.90
2018-07-02T03:45:21.749Z,16.00
2018-07-02T03:50:18.368Z,15.90
2018-07-02T03:52:46.907Z,15.90
2018-07-02T03:55:15.318Z,15.90
2018-07-02T03:57:43.704Z,15.90
2018-07-02T04:00:12.095Z,16.00
2018-07-02T04:02:40.533Z,16.00
2018-07-02T04:05:08.929Z,16.00
2018-07-02T04:07:37.351Z,16.00
2018-07-02T04:10:05.833Z,16.00
2018-07-02T04:12:34.444Z,15.90
2018-07-02T04:15:02.898Z,16.00
2018-07-02T04:17:31.320Z,15.90
2018-07-02T04:19:59.661Z,15.90
2018-07-02T04:22:28.074Z,15.80
2018-07-02T04:24:56.497Z,15.80
2018-07-02T04:27:25.063Z,15.90
2018-07-02T04:29:53.501Z,16.00
2018-07-02T04:32:21.978Z,15.90
2018-07-02T04:34:50.536Z,15.90
2018-07-02T04:37:18.899Z,16.00
2018-07-02T04:39:47.265Z,16.00
2018-07-02T04:42:15.768Z,16.00
2018-07-02T04:44:44.266Z,16.10
2018-07-02T04:47:12.753Z,16.10
2018-07-02T04:49:41.160Z,16.20
2018-07-02T04:52:09.640Z,16.20
2018-07-02T04:54:38.037Z,16.20
2018-07-02T04:57:06.404Z,16.20
2018-07-02T04:59:34.827Z,16.30
2018-07-02T05:02:03.322Z,16.40
2018-07-02T05:04:31.616Z,16.30
2018-07-02T05:07:00.019Z,16.10
2018-07-02T05:09:28.357Z,16.40
2018-07-02T05:11:56.712Z,16.30
2018-07-02T05:14:25.129Z,16.30
2018-07-02T05:16:53.556Z,16.40
2018-07-02T05:19:21.965Z,16.50
2018-07-02T05:21:50.428Z,16.60
2018-07-02T05:24:18.834Z,16.60
2018-07-02T05:26:47.270Z,16.60
2018-07-02T05:29:15.547Z,16.60
2018-07-02T05:31:43.963Z,16.80
2018-07-02T05:34:12.328Z,16.80
2018-07-02T05:36:40.768Z,16.90
2018-07-02T05:39:10.545Z,17.00
2018-07-02T05:41:38.914Z,17.00
2018-07-02T05:44:07.542Z,17.00
2018-07-02T05:46:35.920Z,17.10
2018-07-02T05:49:04.394Z,17.10
2018-07-02T05:51:32.727Z,17.30
2018-07-02T05:54:01.352Z,17.20
2018-07-02T05:56:29.594Z,17.20
2018-07-02T05:58:57.996Z,17.40
2018-07-02T06:01:26.384Z,17.40
2018-07-02T06:03:54.761Z,17.50
2018-07-02T06:06:23.290Z,17.60
2018-07-02T06:08:51.706Z,17.60
2018-07-02T06:11:20.140Z,17.70
2018-07-02T06:13:48.478Z,17.70
2018-07-02T06:16:16.900Z,17.80
2018-07-02T06:18:45.293Z,17.90
2018-07-02T06:21:13.685Z,18.10
2018-07-02T06:23:42.220Z,18.10
2018-07-02T06:26:10.627Z,18.20
2018-07-02T06:28:39.010Z,18.40
2018-07-02T06:31:07.397Z,18.50
2018-07-02T06:33:35.771Z,18.60
2018-07-02T06:36:04.400Z,18.70
2018-07-02T06:38:32.806Z,18.80
2018-07-02T06:41:01.249Z,18.90
2018-07-02T06:43:29.692Z,19.00
2018-07-02T06:45:58.097Z,18.90
2018-07-02T06:48:26.455Z,19.00
2018-07-02T06:50:54.904Z,19.10
2018-07-02T06:53:23.294Z,19.00
2018-07-02T06:55:51.739Z,19.10
2018-07-02T06:58:20.136Z,19.30
2018-07-02T07:00:48.530Z,19.40
2018-07-02T07:03:16.964Z,19.50
2018-07-02T07:05:45.392Z,19.50
2018-07-02T07:08:13.804Z,19.50
2018-07-02T07:10:42.322Z,19.50
2018-07-02T07:13:10.961Z,19.70
2018-07-02T07:15:39.633Z,19.80
2018-07-02T07:18:08.189Z,19.90
2018-07-02T07:20:36.725Z,19.90
2018-07-02T07:23:05.350Z,19.90
2018-07-02T07:25:34.482Z,20.00
2018-07-02T07:28:09.198Z,20.20
2018-07-02T07:30:37.978Z,20.20
2018-07-02T07:33:06.964Z,20.30
2018-07-02T07:35:35.322Z,20.60
2018-07-02T07:38:03.697Z,20.80
2018-07-02T07:40:32.187Z,20.80
2018-07-02T07:43:00.558Z,20.90
2018-07-02T07:45:29.065Z,21.10
2018-07-02T07:47:57.440Z,21.00
2018-07-02T07:50:25.957Z,21.00
2018-07-02T07:52:54.400Z,21.20
2018-07-02T07:55:22.782Z,21.40
2018-07-02T07:57:51.188Z,21.30
2018-07-02T08:00:19.801Z,21.50
2018-07-02T08:02:48.240Z,21.40
2018-07-02T08:05:16.741Z,21.60
2018-07-02T08:07:45.098Z,21.90
2018-07-02T08:10:13.613Z,22.00
2018-07-02T08:12:42.161Z,22.10
2018-07-02T08:15:10.605Z,22.20
2018-07-02T08:17:39.091Z,22.20
2018-07-02T08:22:36.281Z,22.50
2018-07-02T08:25:04.839Z,22.50
2018-07-02T08:27:33.315Z,22.50
2018-07-02T08:32:30.110Z,22.60
2018-07-02T08:34:58.686Z,22.90
2018-07-02T08:37:27.200Z,22.90
2018-07-02T08:39:55.652Z,23.10
2018-07-02T08:42:24.074Z,23.20
2018-07-02T08:44:52.513Z,23.30
2018-07-02T08:47:20.859Z,23.30
2018-07-02T08:49:49.270Z,23.40
2018-07-02T08:52:17.669Z,23.60
2018-07-02T08:54:46.064Z,23.80
2018-07-02T08:57:14.480Z,23.90
2018-07-02T08:59:42.864Z,23.90
2018-07-02T09:02:11.277Z,24.00
2018-07-02T09:04:39.770Z,24.10
2018-07-02T09:07:08.163Z,24.10
2018-07-02T09:09:36.583Z,24.40
2018-07-02T09:12:05.026Z,24.50
2018-07-02T09:14:33.434Z,24.50
2018-07-02T09:17:01.906Z,24.60
2018-07-02T09:19:30.376Z,24.50
2018-07-02T09:21:58.877Z,24.70
2018-07-02T09:24:27.214Z,24.90
2018-07-02T09:26:55.680Z,25.00
2018-07-02T09:29:24.051Z,24.90
2018-07-02T09:31:52.452Z,24.90
2018-07-02T09:34:20.833Z,24.90
2018-07-02T09:36:49.253Z,25.00
2018-07-02T09:41:45.752Z,25.40
2018-07-02T09:44:14.205Z,25.60
2018-07-02T09:46:42.616Z,25.80
2018-07-02T09:49:11.000Z,25.90
2018-07-02T09:51:39.473Z,26.10
2018-07-02T09:54:07.859Z,26.20
2018-07-02T09:56:36.351Z,26.30
2018-07-02T09:59:04.900Z,26.10
2018-07-02T10:01:33.380Z,26.30
2018-07-02T10:04:01.879Z,26.50
2018-07-02T10:06:30.270Z,26.70
2018-07-02T10:08:58.652Z,27.20
2018-07-02T10:11:27.081Z,27.60
2018-07-02T10:13:55.551Z,27.70
2018-07-02T10:16:23.956Z,27.70
2018-07-02T10:18:52.436Z,28.00
2018-07-02T10:21:20.846Z,28.60
2018-07-02T10:23:49.298Z,29.00
2018-07-02T10:26:17.876Z,28.90
2018-07-02T10:28:46.292Z,29.30
2018-07-02T10:31:14.720Z,29.60
2018-07-02T10:33:43.159Z,30.00
2018-07-02T10:36:11.685Z,29.80
2018-07-02T10:38:40.162Z,29.80
2018-07-02T10:41:08.631Z,30.00
2018-07-02T10:43:37.142Z,30.10
2018-07-02T10:46:05.698Z,30.30
2018-07-02T10:48:34.269Z,30.20
2018-07-02T10:51:02.742Z,30.30
2018-07-02T10:53:31.233Z,30.80
2018-07-02T10:55:59.742Z,31.40
2018-07-02T10:58:28.255Z,31.50
2018-07-02T11:00:57.443Z,31.60
2018-07-02T11:03:25.875Z,31.60
2018-07-02T11:05:54.449Z,31.10
2018-07-02T11:08:23.024Z,30.80
2018-07-02T11:10:51.430Z,31.40
2018-07-02T11:15:48.230Z,32.00
2018-07-02T11:18:16.598Z,32.40
2018-07-02T11:20:45.465Z,32.70
2018-07-02T11:23:13.945Z,32.70
2018-07-02T11:25:42.360Z,32.80
2018-07-02T11:28:10.916Z,33.40
2018-07-02T11:33:07.560Z,33.00
2018-07-02T11:35:36.277Z,33.50
2018-07-02T11:38:05.037Z,33.50
2018-07-02T11:43:01.983Z,32.60
2018-07-02T11:45:30.682Z,32.00
2018-07-02T11:47:59.136Z,33.20
2018-07-02T11:50:27.568Z,33.40
2018-07-02T11:52:56.091Z,33.70
2018-07-02T11:55:24.488Z,33.50
2018-07-02T11:57:53.440Z,33.80
2018-07-02T12:00:22.234Z,34.30
2018-07-02T12:02:50.878Z,34.30
2018-07-02T12:05:19.515Z,34.60
2018-07-02T12:07:47.972Z,34.30
2018-07-02T12:10:16.690Z,34.70
2018-07-02T12:12:45.101Z,34.70
2018-07-02T12:17:42.160Z,33.60
2018-07-02T12:20:10.669Z,33.80
2018-07-02T12:22:39.247Z,33.70
2018-07-02T12:25:07.775Z,34.10
2018-07-02T12:27:36.330Z,34.50
2018-07-02T12:30:05.573Z,34.20
2018-07-02T12:32:40.872Z,34.70
2018-07-02T12:35:09.773Z,35.10
2018-07-02T12:37:38.551Z,34.50
2018-07-02T12:40:07.392Z,34.70
2018-07-02T12:42:36.090Z,34.90
2018-07-02T12:45:05.155Z,35.20
2018-07-02T12:47:34.137Z,34.70
2018-07-02T12:50:03.222Z,35.00
2018-07-02T12:52:32.343Z,35.00
2018-07-02T12:55:01.811Z,35.20
2018-07-02T12:57:30.576Z,34.90
2018-07-02T12:59:59.858Z,35.20
2018-07-02T13:02:28.814Z,35.20
2018-07-02T13:04:57.691Z,35.50
2018-07-02T13:07:26.495Z,35.60
2018-07-02T13:09:56.083Z,35.80
2018-07-02T13:12:24.885Z,36.20
2018-07-02T13:14:53.672Z,36.00
2018-07-02T13:17:22.455Z,35.70
2018-07-02T13:19:51.220Z,35.80
2018-07-02T13:22:20.047Z,35.80
2018-07-02T13:24:48.802Z,36.00
2018-07-02T13:27:18.594Z,35.80
2018-07-02T13:29:47.420Z,36.40
2018-07-02T13:32:16.227Z,35.90
2018-07-02T13:34:45.842Z,36.00
2018-07-02T13:37:14.867Z,36.20
2018-07-02T13:39:43.690Z,35.80
2018-07-02T13:42:12.653Z,36.00
2018-07-02T13:44:41.560Z,36.20
2018-07-02T13:47:10.342Z,35.80
2018-07-02T13:49:39.557Z,36.10
2018-07-02T13:52:11.928Z,36.20
2018-07-02T13:57:19.029Z,36.30
2018-07-02T13:59:49.368Z,35.30
2018-07-02T14:02:21.332Z,35.60
2018-07-02T14:04:51.143Z,36.00
2018-07-02T14:07:21.947Z,36.50
2018-07-02T14:09:52.218Z,36.40
2018-07-02T14:12:23.090Z,36.60
2018-07-02T14:17:22.974Z,36.20
2018-07-02T14:19:54.562Z,36.30
2018-07-02T14:22:24.689Z,36.40
2018-07-02T14:24:54.231Z,36.30
2018-07-02T14:27:24.011Z,36.10
2018-07-02T14:30:00.344Z,36.50
2018-07-02T14:32:29.891Z,36.70
2018-07-02T14:35:00.167Z,36.80
2018-07-02T14:37:47.267Z,36.40
2018-07-02T14:40:16.932Z,36.30
2018-07-02T14:42:46.423Z,36.10
2018-07-02T14:45:17.381Z,35.70
2018-07-02T14:47:46.636Z,35.70
2018-07-02T14:56:24.315Z,36.80
2018-07-02T14:58:53.299Z,36.80
2018-07-02T15:01:22.065Z,36.40
2018-07-02T15:03:50.993Z,36.10
2018-07-02T15:06:20.021Z,36.40
2018-07-02T15:08:48.952Z,36.60
2018-07-02T15:11:17.826Z,36.90
2018-07-02T15:13:46.668Z,36.90
2018-07-02T15:16:15.554Z,36.90
2018-07-02T15:18:44.475Z,36.60
2018-07-02T15:21:13.362Z,36.40
2018-07-02T15:23:42.751Z,36.50
2018-07-02T15:26:12.526Z,36.70
2018-07-02T15:28:41.512Z,36.40
2018-07-02T15:31:10.868Z,36.80
2018-07-02T15:33:39.929Z,36.80
2018-07-02T15:36:08.719Z,37.20
2018-07-02T15:38:37.465Z,36.90
2018-07-02T15:43:45.455Z,36.90
2018-07-02T15:46:15.843Z,36.60
2018-07-02T15:48:44.786Z,36.10
2018-07-02T15:51:13.576Z,36.30
2018-07-02T15:53:43.377Z,36.40
2018-07-02T15:56:12.278Z,36.60
2018-07-02T15:58:41.313Z,36.50
2018-07-02T16:01:11.639Z,36.40
2018-07-02T16:03:40.213Z,36.30
2018-07-02T16:06:08.954Z,36.40
2018-07-02T16:08:37.632Z,35.90
2018-07-02T16:11:06.653Z,35.90
2018-07-02T16:13:35.370Z,35.70
2018-07-02T16:16:04.033Z,35.70
2018-07-02T16:18:40.307Z,35.70
2018-07-02T16:21:08.872Z,35.70
2018-07-02T16:23:37.463Z,35.70
2018-07-02T16:26:06.137Z,35.80
2018-07-02T16:28:34.769Z,35.90
2018-07-02T16:31:03.483Z,35.90
2018-07-02T16:33:35.364Z,35.50
2018-07-02T16:36:04.140Z,35.30
2018-07-02T16:38:32.800Z,35.20
2018-07-02T16:41:01.699Z,35.40
2018-07-02T16:43:30.431Z,35.00
2018-07-02T16:45:59.300Z,35.10
2018-07-02T16:48:27.971Z,35.10
2018-07-02T16:50:57.167Z,35.30
2018-07-02T16:53:26.502Z,34.90
2018-07-02T16:55:55.446Z,34.70
2018-07-02T16:58:26.358Z,34.60
2018-07-02T17:00:55.573Z,34.30
2018-07-02T17:03:24.602Z,34.40
2018-07-02T17:05:54.103Z,34.50
2018-07-02T17:10:51.849Z,34.70
2018-07-02T17:13:20.431Z,34.70
2018-07-02T17:15:49.113Z,34.30
2018-07-02T17:18:17.995Z,34.10
2018-07-02T17:20:46.916Z,34.10
2018-07-02T17:23:15.755Z,34.00
2018-07-02T17:25:44.624Z,33.80
2018-07-02T17:28:13.616Z,33.50
2018-07-02T17:30:42.375Z,33.60
2018-07-02T17:33:11.369Z,33.60
2018-07-02T17:35:39.976Z,33.60
2018-07-02T17:49:45.908Z,33.10
2018-07-02T17:55:00.890Z,32.90
2018-07-02T17:57:48.616Z,32.80
2018-07-02T18:00:34.604Z,32.80
2018-07-02T18:03:03.529Z,32.70
2018-07-02T18:05:32.760Z,32.70
2018-07-02T18:08:01.649Z,32.40
2018-07-02T18:10:31.470Z,32.30
2018-07-02T18:13:01.259Z,32.20
2018-07-02T18:15:37.028Z,32.00
2018-07-02T18:33:08.237Z,31.20
2018-07-02T18:35:38.711Z,31.00
2018-07-02T18:38:07.584Z,30.80
2018-07-02T18:40:36.317Z,30.60
2018-07-02T18:43:04.993Z,30.40
2018-07-02T18:45:34.855Z,30.30
2018-07-02T18:48:04.288Z,30.10
2018-07-02T20:46:52.646Z,30.00
2018-07-02T20:49:21.445Z,24.60
2018-07-02T20:51:50.432Z,24.40
2018-07-02T20:54:19.479Z,24.30
2018-07-02T20:56:49.399Z,24.20
2018-07-02T20:59:18.651Z,24.20
2018-07-02T21:01:47.850Z,24.10
2018-07-02T21:04:25.534Z,24.00
2018-07-02T21:06:54.488Z,24.00
2018-07-02T21:09:23.737Z,23.90
2018-07-02T21:14:21.376Z,23.80
2018-07-02T21:16:52.193Z,23.70
2018-07-02T21:19:21.270Z,23.60
2018-07-02T21:21:50.858Z,23.50
2018-07-02T21:24:19.685Z,23.40
2018-07-02T21:26:48.553Z,23.40
2018-07-02T21:29:17.727Z,23.20
2018-07-02T21:31:46.438Z,23.20
2018-07-02T21:34:15.142Z,23.20
2018-07-02T21:36:43.889Z,23.10
2018-07-02T21:39:13.623Z,23.10
2018-07-02T21:41:43.125Z,23.00
2018-07-02T21:44:11.853Z,22.90
2018-07-02T21:46:40.680Z,22.80
2018-07-02T21:49:09.599Z,22.70
2018-07-02T21:51:38.788Z,22.70
2018-07-02T21:54:07.875Z,22.60
2018-07-02T21:56:36.860Z,22.50
2018-07-02T21:59:06.774Z,22.40
2018-07-02T22:01:35.595Z,22.30
2018-07-02T22:04:04.341Z,22.30
2018-07-02T22:06:33.154Z,22.20
2018-07-02T22:09:02.011Z,22.10
2018-07-02T22:11:30.844Z,22.00
2018-07-02T22:13:59.704Z,22.00
2018-07-02T22:16:28.734Z,21.90
2018-07-02T22:18:57.578Z,21.80
2018-07-02T22:21:26.373Z,21.80
2018-07-02T22:23:55.249Z,21.70
2018-07-02T22:26:24.138Z,21.60
2018-07-02T22:28:53.040Z,21.60
2018-07-02T22:31:21.905Z,21.50
2018-07-02T22:33:50.755Z,21.40
2018-07-02T22:36:19.697Z,21.30
2018-07-02T22:38:49.604Z,21.30
2018-07-02T22:41:18.582Z,21.20
2018-07-02T22:43:47.446Z,21.20
2018-07-02T22:46:16.191Z,21.20
2018-07-02T22:48:44.894Z,21.10
2018-07-02T22:51:13.689Z,21.00
2018-07-02T22:53:45.534Z,21.00
2018-07-02T22:56:14.318Z,20.90
2018-07-02T22:58:43.164Z,20.90
2018-07-02T23:01:11.887Z,20.90
2018-07-02T23:03:40.774Z,20.80
2018-07-02T23:06:09.326Z,20.70
2018-07-02T23:08:37.968Z,20.60
2018-07-02T23:11:06.630Z,20.50
2018-07-02T23:13:35.482Z,20.50
2018-07-02T23:18:34.037Z,20.40
2018-07-02T23:21:02.722Z,20.40
2018-07-02T23:23:31.712Z,20.30
2018-07-02T23:26:00.489Z,20.30
2018-07-02T23:28:29.442Z,20.20
2018-07-02T23:30:58.149Z,20.10
2018-07-02T23:33:26.840Z,20.00
2018-07-02T23:35:55.724Z,20.00
2018-07-02T23:38:24.332Z,20.00
2018-07-02T23:40:53.369Z,20.00
2018-07-02T23:43:22.246Z,19.90
2018-07-02T23:45:50.978Z,19.80
2018-07-02T23:48:19.740Z,19.80
2018-07-02T23:50:48.334Z,19.80
2018-07-02T23:53:17.233Z,19.70
2018-07-02T23:55:46.002Z,19.60
2018-07-02T23:58:14.721Z,19.50
